sensor_id;sensor_type;location;lat;lon;timestamp;P1;durP1;ratioP1;P2;durP2;ratioP2
15246;SDS011;7726;48.820;9.248;2023-05-10T00:01:25;9.13;;;1.58;;
15246;SDS011;7726;48.820;9.248;2023-05-10T00:03:54;3.33;;;1.20;;
15246;SDS011;7726;48.820;9.248;2023-05-10T00:06:21;5.13;;;1.02;;
15246;SDS011;7726;48.820;9.248;2023-05-10T00:08:48;0.60;;;0.60;;
15246;SDS011;7726;48.820;9.248;2023-05-10T00:11:15;0.80;;;0.80;;
15246;SDS011;7726;48.820;9.248;2023-05-10T00:13:43;0.55;;;0.50;;
15246;SDS011;7726;48.820;9.248;2023-05-10T00:16:10;0.50;;;0.50;;
15246;SDS011;7726;48.820;9.248;2023-05-10T00:18:38;3.38;;;0.80;;
15246;SDS011;7726;48.820;9.248;2023-05-10T00:21:06;5.68;;;0.68;;
15246;SDS011;7726;48.820;9.248;2023-05-10T00:23:33;0.75;;;0.47;;
15246;SDS011;7726;48.820;9.248;2023-05-10T00:26:00;0.52;;;0.50;;
15246;SDS011;7726;48.820;9.248;2023-05-10T00:28:27;1.85;;;0.32;;
15246;SDS011;7726;48.820;9.248;2023-05-10T00:30:55;0.70;;;0.45;;
15246;SDS011;7726;48.820;9.248;2023-05-10T00:33:22;0.55;;;0.47;;
15246;SDS011;7726;48.820;9.248;2023-05-10T00:35:50;0.52;;;0.35;;
15246;SDS011;7726;48.820;9.248;2023-05-10T00:38:18;0.32;;;0.30;;
15246;SDS011;7726;48.820;9.248;2023-05-10T00:40:46;0.47;;;0.20;;
15246;SDS011;7726;48.820;9.248;2023-05-10T00:43:13;3.40;;;0.40;;
15246;SDS011;7726;48.820;9.248;2023-05-10T00:45:40;0.30;;;0.30;;
15246;SDS011;7726;48.820;9.248;2023-05-10T00:48:07;0.45;;;0.45;;
15246;SDS011;7726;48.820;9.248;2023-05-10T00:50:35;1.65;;;0.30;;
15246;SDS011;7726;48.820;9.248;2023-05-10T00:53:02;1.65;;;0.20;;
15246;SDS011;7726;48.820;9.248;2023-05-10T00:55:31;0.20;;;0.20;;
15246;SDS011;7726;48.820;9.248;2023-05-10T00:57:58;1.65;;;0.30;;
15246;SDS011;7726;48.820;9.248;2023-05-10T01:00:25;0.20;;;0.20;;
15246;SDS011;7726;48.820;9.248;2023-05-10T01:02:53;0.50;;;0.20;;
15246;SDS011;7726;48.820;9.248;2023-05-10T01:05:20;0.28;;;0.28;;
15246;SDS011;7726;48.820;9.248;2023-05-10T01:07:47;0.30;;;0.22;;
15246;SDS011;7726;48.820;9.248;2023-05-10T01:10:14;0.75;;;0.30;;
15246;SDS011;7726;48.820;9.248;2023-05-10T01:12:43;0.38;;;0.38;;
15246;SDS011;7726;48.820;9.248;2023-05-10T01:15:11;1.38;;;0.30;;
15246;SDS011;7726;48.820;9.248;2023-05-10T01:17:39;1.05;;;0.82;;
15246;SDS011;7726;48.820;9.248;2023-05-10T01:20:07;0.30;;;0.30;;
15246;SDS011;7726;48.820;9.248;2023-05-10T01:22:42;1.40;;;0.30;;
15246;SDS011;7726;48.820;9.248;2023-05-10T01:25:17;0.95;;;0.40;;
15246;SDS011;7726;48.820;9.248;2023-05-10T01:28:06;0.43;;;0.43;;
15246;SDS011;7726;48.820;9.248;2023-05-10T01:33:25;0.55;;;0.30;;
15246;SDS011;7726;48.820;9.248;2023-05-10T01:35:55;1.30;;;0.50;;
15246;SDS011;7726;48.820;9.248;2023-05-10T01:38:27;0.47;;;0.47;;
15246;SDS011;7726;48.820;9.248;2023-05-10T01:41:00;0.63;;;0.35;;
15246;SDS011;7726;48.820;9.248;2023-05-10T01:43:32;0.57;;;0.57;;
15246;SDS011;7726;48.820;9.248;2023-05-10T01:46:02;0.60;;;0.60;;
15246;SDS011;7726;48.820;9.248;2023-05-10T01:48:36;0.77;;;0.57;;
15246;SDS011;7726;48.820;9.248;2023-05-10T01:51:04;0.75;;;0.68;;
15246;SDS011;7726;48.820;9.248;2023-05-10T01:53:31;1.00;;;0.57;;
15246;SDS011;7726;48.820;9.248;2023-05-10T01:56:00;0.60;;;0.60;;
15246;SDS011;7726;48.820;9.248;2023-05-10T01:58:28;1.00;;;0.63;;
15246;SDS011;7726;48.820;9.248;2023-05-10T02:00:56;1.77;;;0.57;;
15246;SDS011;7726;48.820;9.248;2023-05-10T02:03:25;2.75;;;0.80;;
15246;SDS011;7726;48.820;9.248;2023-05-10T02:05:54;0.70;;;0.70;;
15246;SDS011;7726;48.820;9.248;2023-05-10T02:08:23;0.80;;;0.80;;
15246;SDS011;7726;48.820;9.248;2023-05-10T02:10:56;1.10;;;1.00;;
15246;SDS011;7726;48.820;9.248;2023-05-10T02:13:24;2.28;;;0.50;;
15246;SDS011;7726;48.820;9.248;2023-05-10T02:15:52;0.70;;;0.70;;
15246;SDS011;7726;48.820;9.248;2023-05-10T02:18:20;0.73;;;0.70;;
15246;SDS011;7726;48.820;9.248;2023-05-10T02:20:48;1.70;;;0.60;;
15246;SDS011;7726;48.820;9.248;2023-05-10T02:23:18;0.60;;;0.60;;
15246;SDS011;7726;48.820;9.248;2023-05-10T02:25:45;1.20;;;0.60;;
15246;SDS011;7726;48.820;9.248;2023-05-10T02:28:14;0.60;;;0.60;;
15246;SDS011;7726;48.820;9.248;2023-05-10T02:30:42;0.90;;;0.90;;
15246;SDS011;7726;48.820;9.248;2023-05-10T02:33:09;0.60;;;0.60;;
15246;SDS011;7726;48.820;9.248;2023-05-10T02:35:37;0.75;;;0.75;;
15246;SDS011;7726;48.820;9.248;2023-05-10T02:38:05;1.67;;;0.75;;
15246;SDS011;7726;48.820;9.248;2023-05-10T02:40:34;1.23;;;0.80;;
15246;SDS011;7726;48.820;9.248;2023-05-10T02:43:02;0.80;;;0.65;;
15246;SDS011;7726;48.820;9.248;2023-05-10T02:45:31;1.13;;;0.70;;
15246;SDS011;7726;48.820;9.248;2023-05-10T02:47:59;0.60;;;0.60;;
15246;SDS011;7726;48.820;9.248;2023-05-10T02:50:27;2.45;;;0.80;;
15246;SDS011;7726;48.820;9.248;2023-05-10T02:52:56;0.68;;;0.68;;
15246;SDS011;7726;48.820;9.248;2023-05-10T02:55:27;0.95;;;0.80;;
15246;SDS011;7726;48.820;9.248;2023-05-10T02:57:59;0.88;;;0.88;;
15246;SDS011;7726;48.820;9.248;2023-05-10T03:00:27;1.20;;;0.93;;
15246;SDS011;7726;48.820;9.248;2023-05-10T03:02:54;0.90;;;0.90;;
15246;SDS011;7726;48.820;9.248;2023-05-10T03:05:21;1.73;;;0.80;;
15246;SDS011;7726;48.820;9.248;2023-05-10T03:07:48;0.82;;;0.82;;
15246;SDS011;7726;48.820;9.248;2023-05-10T03:10:16;0.70;;;0.70;;
15246;SDS011;7726;48.820;9.248;2023-05-10T03:12:59;1.50;;;0.80;;
15246;SDS011;7726;48.820;9.248;2023-05-10T03:15:31;0.70;;;0.70;;
15246;SDS011;7726;48.820;9.248;2023-05-10T03:18:01;0.98;;;0.60;;
15246;SDS011;7726;48.820;9.248;2023-05-10T03:20:29;1.00;;;0.90;;
15246;SDS011;7726;48.820;9.248;2023-05-10T03:23:00;1.05;;;0.70;;
15246;SDS011;7726;48.820;9.248;2023-05-10T03:25:28;0.70;;;0.70;;
15246;SDS011;7726;48.820;9.248;2023-05-10T03:27:56;1.30;;;0.68;;
15246;SDS011;7726;48.820;9.248;2023-05-10T03:30:23;0.85;;;0.85;;
15246;SDS011;7726;48.820;9.248;2023-05-10T03:32:52;0.70;;;0.70;;
15246;SDS011;7726;48.820;9.248;2023-05-10T03:35:19;0.85;;;0.70;;
15246;SDS011;7726;48.820;9.248;2023-05-10T03:37:46;1.17;;;1.10;;
15246;SDS011;7726;48.820;9.248;2023-05-10T03:40:13;0.80;;;0.80;;
15246;SDS011;7726;48.820;9.248;2023-05-10T03:42:41;1.40;;;1.10;;
15246;SDS011;7726;48.820;9.248;2023-05-10T03:45:08;0.80;;;0.80;;
15246;SDS011;7726;48.820;9.248;2023-05-10T03:47:35;1.95;;;0.80;;
15246;SDS011;7726;48.820;9.248;2023-05-10T03:50:04;0.90;;;0.90;;
15246;SDS011;7726;48.820;9.248;2023-05-10T03:52:32;1.77;;;0.93;;
15246;SDS011;7726;48.820;9.248;2023-05-10T03:55:00;1.00;;;0.95;;
15246;SDS011;7726;48.820;9.248;2023-05-10T03:57:28;2.40;;;0.93;;
15246;SDS011;7726;48.820;9.248;2023-05-10T03:59:55;2.00;;;1.30;;
15246;SDS011;7726;48.820;9.248;2023-05-10T04:02:22;1.00;;;1.00;;
15246;SDS011;7726;48.820;9.248;2023-05-10T04:04:49;2.50;;;1.45;;
15246;SDS011;7726;48.820;9.248;2023-05-10T04:07:18;2.17;;;1.30;;
15246;SDS011;7726;48.820;9.248;2023-05-10T04:09:45;4.25;;;1.38;;
15246;SDS011;7726;48.820;9.248;2023-05-10T04:12:12;1.33;;;1.30;;
15246;SDS011;7726;48.820;9.248;2023-05-10T04:14:39;1.50;;;1.40;;
15246;SDS011;7726;48.820;9.248;2023-05-10T04:17:06;2.58;;;1.20;;
15246;SDS011;7726;48.820;9.248;2023-05-10T04:19:33;1.40;;;1.30;;
15246;SDS011;7726;48.820;9.248;2023-05-10T04:22:02;1.73;;;1.23;;
15246;SDS011;7726;48.820;9.248;2023-05-10T04:24:30;2.88;;;1.38;;
15246;SDS011;7726;48.820;9.248;2023-05-10T04:26:57;1.27;;;1.27;;
15246;SDS011;7726;48.820;9.248;2023-05-10T04:29:26;2.33;;;0.90;;
15246;SDS011;7726;48.820;9.248;2023-05-10T04:31:53;2.38;;;1.20;;
15246;SDS011;7726;48.820;9.248;2023-05-10T04:34:21;1.10;;;1.00;;
15246;SDS011;7726;48.820;9.248;2023-05-10T04:36:48;1.38;;;1.27;;
15246;SDS011;7726;48.820;9.248;2023-05-10T04:39:15;1.35;;;1.25;;
15246;SDS011;7726;48.820;9.248;2023-05-10T04:41:44;3.38;;;1.10;;
15246;SDS011;7726;48.820;9.248;2023-05-10T04:44:11;1.70;;;1.48;;
15246;SDS011;7726;48.820;9.248;2023-05-10T04:46:38;3.17;;;1.23;;
15246;SDS011;7726;48.820;9.248;2023-05-10T04:49:05;1.30;;;1.20;;
15246;SDS011;7726;48.820;9.248;2023-05-10T04:51:32;1.30;;;1.30;;
15246;SDS011;7726;48.820;9.248;2023-05-10T04:53:59;3.00;;;1.77;;
15246;SDS011;7726;48.820;9.248;2023-05-10T04:56:26;1.25;;;1.15;;
15246;SDS011;7726;48.820;9.248;2023-05-10T04:58:55;1.42;;;1.30;;
15246;SDS011;7726;48.820;9.248;2023-05-10T05:01:22;1.25;;;1.20;;
15246;SDS011;7726;48.820;9.248;2023-05-10T05:03:49;2.35;;;1.20;;
15246;SDS011;7726;48.820;9.248;2023-05-10T05:06:17;1.00;;;1.00;;
15246;SDS011;7726;48.820;9.248;2023-05-10T05:08:45;1.48;;;1.10;;
15246;SDS011;7726;48.820;9.248;2023-05-10T05:11:14;1.20;;;1.05;;
15246;SDS011;7726;48.820;9.248;2023-05-10T05:13:41;4.05;;;1.20;;
15246;SDS011;7726;48.820;9.248;2023-05-10T05:16:09;1.10;;;1.00;;
15246;SDS011;7726;48.820;9.248;2023-05-10T05:18:36;2.45;;;1.15;;
15246;SDS011;7726;48.820;9.248;2023-05-10T05:21:12;2.15;;;1.10;;
15246;SDS011;7726;48.820;9.248;2023-05-10T05:23:40;1.38;;;1.27;;
15246;SDS011;7726;48.820;9.248;2023-05-10T05:26:07;2.97;;;1.33;;
15246;SDS011;7726;48.820;9.248;2023-05-10T05:28:34;2.80;;;1.23;;
15246;SDS011;7726;48.820;9.248;2023-05-10T05:31:02;1.75;;;1.10;;
15246;SDS011;7726;48.820;9.248;2023-05-10T05:33:30;1.02;;;1.02;;
15246;SDS011;7726;48.820;9.248;2023-05-10T05:35:59;1.80;;;1.02;;
15246;SDS011;7726;48.820;9.248;2023-05-10T05:38:27;2.25;;;1.08;;
15246;SDS011;7726;48.820;9.248;2023-05-10T05:40:54;1.05;;;1.00;;
15246;SDS011;7726;48.820;9.248;2023-05-10T05:43:21;1.25;;;1.02;;
15246;SDS011;7726;48.820;9.248;2023-05-10T05:45:48;1.95;;;1.10;;
15246;SDS011;7726;48.820;9.248;2023-05-10T05:48:15;1.77;;;1.33;;
15246;SDS011;7726;48.820;9.248;2023-05-10T05:50:43;1.58;;;1.10;;
15246;SDS011;7726;48.820;9.248;2023-05-10T05:53:11;1.63;;;0.88;;
15246;SDS011;7726;48.820;9.248;2023-05-10T05:55:38;0.90;;;0.90;;
15246;SDS011;7726;48.820;9.248;2023-05-10T05:58:05;2.08;;;1.00;;
15246;SDS011;7726;48.820;9.248;2023-05-10T06:00:32;1.27;;;1.17;;
15246;SDS011;7726;48.820;9.248;2023-05-10T06:03:00;1.98;;;0.90;;
15246;SDS011;7726;48.820;9.248;2023-05-10T06:05:27;1.23;;;0.93;;
15246;SDS011;7726;48.820;9.248;2023-05-10T06:07:55;2.63;;;1.10;;
15246;SDS011;7726;48.820;9.248;2023-05-10T06:10:23;1.98;;;1.10;;
15246;SDS011;7726;48.820;9.248;2023-05-10T06:12:50;1.88;;;1.08;;
15246;SDS011;7726;48.820;9.248;2023-05-10T06:15:18;1.00;;;1.00;;
15246;SDS011;7726;48.820;9.248;2023-05-10T06:17:45;1.70;;;1.10;;
15246;SDS011;7726;48.820;9.248;2023-05-10T06:20:14;1.50;;;1.10;;
15246;SDS011;7726;48.820;9.248;2023-05-10T06:22:41;1.73;;;1.20;;
15246;SDS011;7726;48.820;9.248;2023-05-10T06:25:10;4.00;;;1.00;;
15246;SDS011;7726;48.820;9.248;2023-05-10T06:27:37;2.63;;;1.02;;
15246;SDS011;7726;48.820;9.248;2023-05-10T06:30:05;1.35;;;1.00;;
15246;SDS011;7726;48.820;9.248;2023-05-10T06:32:33;0.90;;;0.90;;
15246;SDS011;7726;48.820;9.248;2023-05-10T06:35:00;1.05;;;0.88;;
15246;SDS011;7726;48.820;9.248;2023-05-10T06:37:27;1.13;;;0.85;;
15246;SDS011;7726;48.820;9.248;2023-05-10T06:39:54;1.48;;;0.88;;
15246;SDS011;7726;48.820;9.248;2023-05-10T06:42:22;1.42;;;0.98;;
15246;SDS011;7726;48.820;9.248;2023-05-10T06:44:50;1.98;;;0.98;;
15246;SDS011;7726;48.820;9.248;2023-05-10T06:47:17;1.27;;;1.10;;
15246;SDS011;7726;48.820;9.248;2023-05-10T06:49:44;0.80;;;0.80;;
15246;SDS011;7726;48.820;9.248;2023-05-10T06:52:11;0.90;;;0.90;;
15246;SDS011;7726;48.820;9.248;2023-05-10T06:54:38;3.05;;;1.17;;
15246;SDS011;7726;48.820;9.248;2023-05-10T06:57:06;3.95;;;1.10;;
15246;SDS011;7726;48.820;9.248;2023-05-10T06:59:34;0.70;;;0.70;;
15246;SDS011;7726;48.820;9.248;2023-05-10T07:02:01;1.10;;;1.00;;
15246;SDS011;7726;48.820;9.248;2023-05-10T07:04:29;2.38;;;0.95;;
15246;SDS011;7726;48.820;9.248;2023-05-10T07:06:56;1.15;;;0.90;;
15246;SDS011;7726;48.820;9.248;2023-05-10T07:09:23;1.67;;;0.90;;
15246;SDS011;7726;48.820;9.248;2023-05-10T07:11:50;0.98;;;0.88;;
15246;SDS011;7726;48.820;9.248;2023-05-10T07:14:18;1.95;;;0.95;;
15246;SDS011;7726;48.820;9.248;2023-05-10T07:16:46;1.48;;;0.80;;
15246;SDS011;7726;48.820;9.248;2023-05-10T07:19:13;1.58;;;1.00;;
15246;SDS011;7726;48.820;9.248;2023-05-10T07:21:40;1.20;;;1.05;;
15246;SDS011;7726;48.820;9.248;2023-05-10T07:24:08;1.23;;;1.10;;
15246;SDS011;7726;48.820;9.248;2023-05-10T07:26:35;0.90;;;0.90;;
15246;SDS011;7726;48.820;9.248;2023-05-10T07:29:02;2.47;;;1.00;;
15246;SDS011;7726;48.820;9.248;2023-05-10T07:31:29;0.90;;;0.90;;
15246;SDS011;7726;48.820;9.248;2023-05-10T07:33:58;0.85;;;0.70;;
15246;SDS011;7726;48.820;9.248;2023-05-10T07:36:25;0.95;;;0.80;;
15246;SDS011;7726;48.820;9.248;2023-05-10T07:38:52;1.13;;;0.85;;
15246;SDS011;7726;48.820;9.248;2023-05-10T07:41:19;0.80;;;0.80;;
15246;SDS011;7726;48.820;9.248;2023-05-10T07:43:47;0.90;;;0.90;;
15246;SDS011;7726;48.820;9.248;2023-05-10T07:46:14;1.00;;;0.82;;
15246;SDS011;7726;48.820;9.248;2023-05-10T07:48:41;2.50;;;0.90;;
15246;SDS011;7726;48.820;9.248;2023-05-10T07:51:10;1.10;;;1.00;;
15246;SDS011;7726;48.820;9.248;2023-05-10T07:53:37;2.08;;;1.10;;
15246;SDS011;7726;48.820;9.248;2023-05-10T07:56:19;2.45;;;1.20;;
15246;SDS011;7726;48.820;9.248;2023-05-10T07:58:46;3.65;;;1.23;;
15246;SDS011;7726;48.820;9.248;2023-05-10T08:01:13;0.63;;;0.63;;
15246;SDS011;7726;48.820;9.248;2023-05-10T08:03:40;1.23;;;0.93;;
15246;SDS011;7726;48.820;9.248;2023-05-10T08:06:07;2.97;;;1.10;;
15246;SDS011;7726;48.820;9.248;2023-05-10T08:08:36;3.15;;;0.90;;
15246;SDS011;7726;48.820;9.248;2023-05-10T08:11:03;1.75;;;1.15;;
15246;SDS011;7726;48.820;9.248;2023-05-10T08:13:30;1.73;;;0.70;;
15246;SDS011;7726;48.820;9.248;2023-05-10T08:15:57;0.93;;;0.70;;
15246;SDS011;7726;48.820;9.248;2023-05-10T08:18:25;1.02;;;0.60;;
15246;SDS011;7726;48.820;9.248;2023-05-10T08:20:52;0.70;;;0.70;;
15246;SDS011;7726;48.820;9.248;2023-05-10T08:23:20;0.65;;;0.65;;
15246;SDS011;7726;48.820;9.248;2023-05-10T08:25:48;3.47;;;1.00;;
15246;SDS011;7726;48.820;9.248;2023-05-10T08:28:15;2.40;;;0.65;;
15246;SDS011;7726;48.820;9.248;2023-05-10T08:30:42;2.33;;;0.70;;
15246;SDS011;7726;48.820;9.248;2023-05-10T08:33:10;2.22;;;0.65;;
15246;SDS011;7726;48.820;9.248;2023-05-10T08:35:37;0.73;;;0.73;;
15246;SDS011;7726;48.820;9.248;2023-05-10T08:38:04;0.70;;;0.70;;
15246;SDS011;7726;48.820;9.248;2023-05-10T08:40:31;1.55;;;0.82;;
15246;SDS011;7726;48.820;9.248;2023-05-10T08:43:04;0.60;;;0.60;;
15246;SDS011;7726;48.820;9.248;2023-05-10T08:45:32;0.50;;;0.50;;
15246;SDS011;7726;48.820;9.248;2023-05-10T08:48:01;1.80;;;0.88;;
15246;SDS011;7726;48.820;9.248;2023-05-10T08:50:28;1.13;;;0.65;;
15246;SDS011;7726;48.820;9.248;2023-05-10T08:52:57;1.42;;;0.70;;
15246;SDS011;7726;48.820;9.248;2023-05-10T08:55:25;1.20;;;0.73;;
15246;SDS011;7726;48.820;9.248;2023-05-10T08:57:53;0.60;;;0.60;;
15246;SDS011;7726;48.820;9.248;2023-05-10T09:00:21;0.95;;;0.57;;
15246;SDS011;7726;48.820;9.248;2023-05-10T09:02:49;1.80;;;0.63;;
15246;SDS011;7726;48.820;9.248;2023-05-10T09:05:17;2.15;;;0.73;;
15246;SDS011;7726;48.820;9.248;2023-05-10T09:07:44;1.05;;;0.60;;
15246;SDS011;7726;48.820;9.248;2023-05-10T09:10:11;0.80;;;0.80;;
15246;SDS011;7726;48.820;9.248;2023-05-10T09:12:38;0.68;;;0.63;;
15246;SDS011;7726;48.820;9.248;2023-05-10T09:15:06;1.00;;;0.63;;
15246;SDS011;7726;48.820;9.248;2023-05-10T09:17:35;0.52;;;0.52;;
15246;SDS011;7726;48.820;9.248;2023-05-10T09:20:03;0.52;;;0.40;;
15246;SDS011;7726;48.820;9.248;2023-05-10T09:22:30;1.08;;;0.57;;
15246;SDS011;7726;48.820;9.248;2023-05-10T09:25:04;0.40;;;0.40;;
15246;SDS011;7726;48.820;9.248;2023-05-10T09:27:32;0.63;;;0.40;;
15246;SDS011;7726;48.820;9.248;2023-05-10T09:29:59;0.60;;;0.50;;
15246;SDS011;7726;48.820;9.248;2023-05-10T09:32:36;0.68;;;0.52;;
15246;SDS011;7726;48.820;9.248;2023-05-10T09:35:07;0.55;;;0.55;;
15246;SDS011;7726;48.820;9.248;2023-05-10T09:37:34;4.43;;;0.98;;
15246;SDS011;7726;48.820;9.248;2023-05-10T09:40:04;1.48;;;0.85;;
15246;SDS011;7726;48.820;9.248;2023-05-10T09:42:33;0.68;;;0.68;;
15246;SDS011;7726;48.820;9.248;2023-05-10T09:45:02;0.88;;;0.60;;
15246;SDS011;7726;48.820;9.248;2023-05-10T09:47:29;0.47;;;0.47;;
15246;SDS011;7726;48.820;9.248;2023-05-10T09:49:59;0.60;;;0.60;;
15246;SDS011;7726;48.820;9.248;2023-05-10T09:52:28;0.47;;;0.47;;
15246;SDS011;7726;48.820;9.248;2023-05-10T09:54:56;0.45;;;0.45;;
15246;SDS011;7726;48.820;9.248;2023-05-10T09:57:23;0.82;;;0.82;;
15246;SDS011;7726;48.820;9.248;2023-05-10T09:59:51;1.00;;;0.70;;
15246;SDS011;7726;48.820;9.248;2023-05-10T10:02:19;2.10;;;0.57;;
15246;SDS011;7726;48.820;9.248;2023-05-10T10:04:48;0.63;;;0.40;;
15246;SDS011;7726;48.820;9.248;2023-05-10T10:07:18;0.50;;;0.50;;
15246;SDS011;7726;48.820;9.248;2023-05-10T10:09:49;2.88;;;0.60;;
15246;SDS011;7726;48.820;9.248;2023-05-10T10:12:16;1.20;;;0.43;;
15246;SDS011;7726;48.820;9.248;2023-05-10T10:14:44;1.25;;;0.57;;
15246;SDS011;7726;48.820;9.248;2023-05-10T10:17:12;2.53;;;0.70;;
15246;SDS011;7726;48.820;9.248;2023-05-10T10:19:39;0.80;;;0.80;;
15246;SDS011;7726;48.820;9.248;2023-05-10T10:22:07;0.77;;;0.70;;
15246;SDS011;7726;48.820;9.248;2023-05-10T10:24:37;1.17;;;0.55;;
15246;SDS011;7726;48.820;9.248;2023-05-10T10:27:09;2.95;;;0.40;;
15246;SDS011;7726;48.820;9.248;2023-05-10T10:29:39;1.27;;;0.60;;
15246;SDS011;7726;48.820;9.248;2023-05-10T10:32:08;0.52;;;0.52;;
15246;SDS011;7726;48.820;9.248;2023-05-10T10:34:38;2.58;;;0.40;;
15246;SDS011;7726;48.820;9.248;2023-05-10T10:37:05;1.67;;;0.52;;
15246;SDS011;7726;48.820;9.248;2023-05-10T10:39:33;0.40;;;0.40;;
15246;SDS011;7726;48.820;9.248;2023-05-10T10:42:03;0.60;;;0.60;;
15246;SDS011;7726;48.820;9.248;2023-05-10T10:44:35;0.52;;;0.47;;
15246;SDS011;7726;48.820;9.248;2023-05-10T10:47:07;0.80;;;0.60;;
15246;SDS011;7726;48.820;9.248;2023-05-10T10:49:43;0.93;;;0.45;;
15246;SDS011;7726;48.820;9.248;2023-05-10T10:52:14;0.70;;;0.70;;
15246;SDS011;7726;48.820;9.248;2023-05-10T10:54:44;0.77;;;0.68;;
15246;SDS011;7726;48.820;9.248;2023-05-10T10:57:15;0.40;;;0.40;;
15246;SDS011;7726;48.820;9.248;2023-05-10T10:59:44;1.92;;;0.30;;
15246;SDS011;7726;48.820;9.248;2023-05-10T11:02:20;0.50;;;0.40;;
15246;SDS011;7726;48.820;9.248;2023-05-10T11:04:59;0.70;;;0.47;;
15246;SDS011;7726;48.820;9.248;2023-05-10T11:07:26;3.20;;;0.45;;
15246;SDS011;7726;48.820;9.248;2023-05-10T11:09:53;0.40;;;0.40;;
15246;SDS011;7726;48.820;9.248;2023-05-10T11:12:22;3.08;;;0.60;;
15246;SDS011;7726;48.820;9.248;2023-05-10T11:14:49;1.17;;;0.30;;
15246;SDS011;7726;48.820;9.248;2023-05-10T11:17:22;0.98;;;0.40;;
15246;SDS011;7726;48.820;9.248;2023-05-10T11:22:49;1.75;;;0.30;;
15246;SDS011;7726;48.820;9.248;2023-05-10T11:25:16;0.43;;;0.43;;
15246;SDS011;7726;48.820;9.248;2023-05-10T11:27:45;0.45;;;0.45;;
15246;SDS011;7726;48.820;9.248;2023-05-10T11:30:14;1.30;;;0.40;;
15246;SDS011;7726;48.820;9.248;2023-05-10T11:32:41;2.92;;;0.52;;
15246;SDS011;7726;48.820;9.248;2023-05-10T11:35:09;0.45;;;0.45;;
15246;SDS011;7726;48.820;9.248;2023-05-10T11:37:36;2.00;;;0.60;;
15246;SDS011;7726;48.820;9.248;2023-05-10T11:40:06;0.40;;;0.40;;
15246;SDS011;7726;48.820;9.248;2023-05-10T11:42:35;1.85;;;0.60;;
15246;SDS011;7726;48.820;9.248;2023-05-10T11:45:04;1.13;;;0.40;;
15246;SDS011;7726;48.820;9.248;2023-05-10T11:47:32;0.40;;;0.40;;
15246;SDS011;7726;48.820;9.248;2023-05-10T11:50:00;1.25;;;0.50;;
15246;SDS011;7726;48.820;9.248;2023-05-10T11:52:27;2.65;;;0.70;;
15246;SDS011;7726;48.820;9.248;2023-05-10T11:54:55;0.57;;;0.57;;
15246;SDS011;7726;48.820;9.248;2023-05-10T11:57:25;0.55;;;0.50;;
15246;SDS011;7726;48.820;9.248;2023-05-10T11:59:52;1.10;;;0.55;;
15246;SDS011;7726;48.820;9.248;2023-05-10T12:02:22;1.02;;;0.45;;
15246;SDS011;7726;48.820;9.248;2023-05-10T12:04:49;2.20;;;0.65;;
15246;SDS011;7726;48.820;9.248;2023-05-10T12:07:16;1.85;;;0.90;;
15246;SDS011;7726;48.820;9.248;2023-05-10T12:09:44;0.98;;;0.90;;
15246;SDS011;7726;48.820;9.248;2023-05-10T12:12:15;2.60;;;0.65;;
15246;SDS011;7726;48.820;9.248;2023-05-10T12:14:42;1.60;;;0.80;;
15246;SDS011;7726;48.820;9.248;2023-05-10T12:17:11;2.97;;;0.90;;
15246;SDS011;7726;48.820;9.248;2023-05-10T12:19:40;2.15;;;0.93;;
15246;SDS011;7726;48.820;9.248;2023-05-10T12:22:08;4.00;;;0.90;;
15246;SDS011;7726;48.820;9.248;2023-05-10T12:24:36;0.90;;;0.75;;
15246;SDS011;7726;48.820;9.248;2023-05-10T12:27:04;1.50;;;0.88;;
15246;SDS011;7726;48.820;9.248;2023-05-10T12:29:33;1.05;;;0.93;;
15246;SDS011;7726;48.820;9.248;2023-05-10T12:32:00;0.90;;;0.63;;
15246;SDS011;7726;48.820;9.248;2023-05-10T12:34:30;0.75;;;0.70;;
15246;SDS011;7726;48.820;9.248;2023-05-10T12:36:59;1.75;;;0.95;;
15246;SDS011;7726;48.820;9.248;2023-05-10T12:39:36;1.15;;;0.90;;
15246;SDS011;7726;48.820;9.248;2023-05-10T12:42:05;1.23;;;0.80;;
15246;SDS011;7726;48.820;9.248;2023-05-10T12:44:32;2.05;;;0.70;;
15246;SDS011;7726;48.820;9.248;2023-05-10T12:46:59;2.42;;;0.80;;
15246;SDS011;7726;48.820;9.248;2023-05-10T12:49:26;1.42;;;0.80;;
15246;SDS011;7726;48.820;9.248;2023-05-10T12:51:53;1.27;;;0.77;;
15246;SDS011;7726;48.820;9.248;2023-05-10T12:54:22;1.27;;;0.70;;
15246;SDS011;7726;48.820;9.248;2023-05-10T12:56:49;1.02;;;0.68;;
15246;SDS011;7726;48.820;9.248;2023-05-10T12:59:16;0.75;;;0.73;;
15246;SDS011;7726;48.820;9.248;2023-05-10T13:01:43;0.80;;;0.73;;
15246;SDS011;7726;48.820;9.248;2023-05-10T13:04:10;2.28;;;1.02;;
15246;SDS011;7726;48.820;9.248;2023-05-10T13:06:37;1.33;;;0.68;;
15246;SDS011;7726;48.820;9.248;2023-05-10T13:09:05;2.35;;;0.90;;
15246;SDS011;7726;48.820;9.248;2023-05-10T13:11:33;1.42;;;0.57;;
15246;SDS011;7726;48.820;9.248;2023-05-10T13:14:00;1.83;;;0.90;;
15246;SDS011;7726;48.820;9.248;2023-05-10T13:16:28;1.23;;;0.80;;
15246;SDS011;7726;48.820;9.248;2023-05-10T13:18:55;2.80;;;0.70;;
15246;SDS011;7726;48.820;9.248;2023-05-10T13:21:23;0.63;;;0.60;;
15246;SDS011;7726;48.820;9.248;2023-05-10T13:23:50;2.45;;;0.75;;
15246;SDS011;7726;48.820;9.248;2023-05-10T13:26:17;0.70;;;0.70;;
15246;SDS011;7726;48.820;9.248;2023-05-10T13:28:46;0.77;;;0.70;;
15246;SDS011;7726;48.820;9.248;2023-05-10T13:31:13;0.35;;;0.35;;
15246;SDS011;7726;48.820;9.248;2023-05-10T13:33:40;1.30;;;0.77;;
15246;SDS011;7726;48.820;9.248;2023-05-10T13:36:08;2.50;;;0.80;;
15246;SDS011;7726;48.820;9.248;2023-05-10T13:38:35;0.82;;;0.60;;
15246;SDS011;7726;48.820;9.248;2023-05-10T13:41:02;1.70;;;0.70;;
15246;SDS011;7726;48.820;9.248;2023-05-10T13:43:30;0.70;;;0.57;;
15246;SDS011;7726;48.820;9.248;2023-05-10T13:45:58;1.88;;;0.90;;
15246;SDS011;7726;48.820;9.248;2023-05-10T13:48:26;1.10;;;0.80;;
15246;SDS011;7726;48.820;9.248;2023-05-10T13:50:53;2.08;;;0.80;;
15246;SDS011;7726;48.820;9.248;2023-05-10T13:53:21;1.25;;;1.00;;
15246;SDS011;7726;48.820;9.248;2023-05-10T13:55:48;2.38;;;0.77;;
15246;SDS011;7726;48.820;9.248;2023-05-10T13:58:15;1.02;;;0.68;;
15246;SDS011;7726;48.820;9.248;2023-05-10T14:00:42;0.75;;;0.75;;
15246;SDS011;7726;48.820;9.248;2023-05-10T14:03:11;1.77;;;0.80;;
15246;SDS011;7726;48.820;9.248;2023-05-10T14:05:38;0.82;;;0.50;;
15246;SDS011;7726;48.820;9.248;2023-05-10T14:08:05;0.75;;;0.75;;
15246;SDS011;7726;48.820;9.248;2023-05-10T14:10:34;1.40;;;0.50;;
15246;SDS011;7726;48.820;9.248;2023-05-10T14:13:01;0.93;;;0.57;;
15246;SDS011;7726;48.820;9.248;2023-05-10T14:15:29;0.80;;;0.50;;
15246;SDS011;7726;48.820;9.248;2023-05-10T14:17:56;1.38;;;0.90;;
15246;SDS011;7726;48.820;9.248;2023-05-10T14:20:24;2.28;;;0.70;;
15246;SDS011;7726;48.820;9.248;2023-05-10T14:22:52;2.22;;;0.90;;
15246;SDS011;7726;48.820;9.248;2023-05-10T14:25:19;2.25;;;0.90;;
15246;SDS011;7726;48.820;9.248;2023-05-10T14:27:46;1.05;;;0.90;;
15246;SDS011;7726;48.820;9.248;2023-05-10T14:30:13;2.38;;;1.20;;
15246;SDS011;7726;48.820;9.248;2023-05-10T14:32:40;3.88;;;0.93;;
15246;SDS011;7726;48.820;9.248;2023-05-10T14:35:08;0.88;;;0.70;;
15246;SDS011;7726;48.820;9.248;2023-05-10T14:37:37;3.22;;;0.90;;
15246;SDS011;7726;48.820;9.248;2023-05-10T14:40:04;1.88;;;0.70;;
15246;SDS011;7726;48.820;9.248;2023-05-10T14:42:32;2.35;;;1.00;;
15246;SDS011;7726;48.820;9.248;2023-05-10T14:44:59;0.80;;;0.70;;
15246;SDS011;7726;48.820;9.248;2023-05-10T14:47:26;0.70;;;0.68;;
15246;SDS011;7726;48.820;9.248;2023-05-10T14:49:53;1.75;;;0.68;;
15246;SDS011;7726;48.820;9.248;2023-05-10T14:52:20;0.80;;;0.80;;
15246;SDS011;7726;48.820;9.248;2023-05-10T14:54:49;1.58;;;0.98;;
15246;SDS011;7726;48.820;9.248;2023-05-10T14:57:16;2.40;;;0.70;;
15246;SDS011;7726;48.820;9.248;2023-05-10T14:59:43;2.30;;;0.80;;
15246;SDS011;7726;48.820;9.248;2023-05-10T15:02:10;1.30;;;0.57;;
15246;SDS011;7726;48.820;9.248;2023-05-10T15:04:38;0.73;;;0.73;;
15246;SDS011;7726;48.820;9.248;2023-05-10T15:07:05;2.35;;;0.75;;
15246;SDS011;7726;48.820;9.248;2023-05-10T15:09:33;2.50;;;0.73;;
15246;SDS011;7726;48.820;9.248;2023-05-10T15:12:01;3.45;;;0.65;;